Time;durP1;ratioP1;P1;durP2;ratioP2;P2;SDS_P1;SDS_P2;PMS_P1;PMS_P2;Temp;Humidity;BMP_temperature;BMP_pressure;BME280_temperature;BME280_humidity;BME280_pressure;Samples;Min_cycle;Max_cycle;Signal;HPM_P1;HPM_P2
2023/01/06 00:00:19;;;;;;;1.92;1.17;;;12.70;99.90;;;;;;4987334;28;20229;-76
2023/01/06 00:02:45;;;;;;;2.08;1.20;;;12.70;99.90;;;;;;4987760;28;20225;-74
2023/01/06 00:05:13;;;;;;;2.95;1.20;;;12.70;99.90;;;;;;4987948;28;20183;-75
2023/01/06 00:07:39;;;;;;;2.38;1.10;;;12.70;99.90;;;;;;4983801;28;20207;-75
2023/01/06 00:10:08;;;;;;;2.38;1.10;;;12.70;99.90;;;;;;4985086;28;20190;-74
2023/01/06 00:12:33;;;;;;;1.52;1.00;;;12.70;99.90;;;;;;4992220;28;20189;-74
2023/01/06 00:14:59;;;;;;;1.20;1.02;;;12.70;99.90;;;;;;4980274;28;20459;-75
2023/01/06 00:17:29;;;;;;;1.13;0.82;;;12.80;99.90;;;;;;4985538;28;20236;-75
2023/01/06 00:19:55;;;;;;;1.45;0.90;;;12.80;99.90;;;;;;4980633;28;20176;-75
2023/01/06 00:22:23;;;;;;;1.58;1.10;;;12.80;99.90;;;;;;4989048;28;20171;-75
2023/01/06 00:24:51;;;;;;;1.10;1.00;;;12.80;99.90;;;;;;4978460;28;20184;-75
2023/01/06 00:27:16;;;;;;;1.75;1.17;;;12.80;99.90;;;;;;4985741;28;20282;-74
2023/01/06 00:29:42;;;;;;;1.10;0.80;;;12.80;99.90;;;;;;4975580;28;20316;-75
2023/01/06 00:32:07;;;;;;;2.08;0.93;;;12.80;99.90;;;;;;4984551;28;20167;-75
2023/01/06 00:34:33;;;;;;;1.40;1.13;;;12.70;99.90;;;;;;4982381;28;20198;-74
2023/01/06 00:37:02;;;;;;;1.30;1.00;;;12.80;99.90;;;;;;4973738;28;20284;-75
2023/01/06 00:39:28;;;;;;;2.03;0.90;;;12.80;99.90;;;;;;4978346;28;20182;-74
2023/01/06 00:42:02;;;;;;;0.90;0.80;;;12.80;99.90;;;;;;4980511;28;20203;-74
2023/01/06 00:44:32;;;;;;;0.98;0.70;;;12.80;99.90;;;;;;4984483;28;20254;-74
2023/01/06 00:46:58;;;;;;;1.00;0.82;;;12.80;99.90;;;;;;4977310;28;20215;-73
2023/01/06 00:49:23;;;;;;;1.00;0.80;;;12.80;99.90;;;;;;4981550;28;20262;-74
2023/01/06 00:51:49;;;;;;;2.97;0.82;;;12.80;99.90;;;;;;4978130;28;20179;-74
2023/01/06 00:54:15;;;;;;;2.22;0.68;;;12.80;99.90;;;;;;4966405;28;20183;-75
2023/01/06 00:56:46;;;;;;;1.50;0.70;;;12.80;99.90;;;;;;4973823;28;20210;-73
2023/01/06 00:59:21;;;;;;;1.40;0.60;;;12.80;99.90;;;;;;4979202;28;20175;-74
2023/01/06 01:01:59;;;;;;;1.42;0.90;;;12.80;99.90;;;;;;4973042;28;20205;-74
2023/01/06 01:04:25;;;;;;;1.25;0.70;;;12.90;99.90;;;;;;4981670;28;20184;-74
2023/01/06 01:06:53;;;;;;;1.83;1.02;;;12.90;99.90;;;;;;4992952;28;20232;-73
2023/01/06 01:09:25;;;;;;;2.20;0.80;;;12.90;99.90;;;;;;4977494;28;20295;-75
2023/01/06 01:12:10;;;;;;;1.08;0.73;;;12.90;99.90;;;;;;4987696;28;20183;-77
2023/01/06 01:14:40;;;;;;;0.82;0.57;;;12.90;99.90;;;;;;4965955;28;20561;-74
2023/01/06 01:17:07;;;;;;;1.20;0.70;;;12.90;99.90;;;;;;4988085;28;20207;-74
2023/01/06 01:19:33;;;;;;;0.80;0.63;;;12.90;99.90;;;;;;4975922;28;20179;-74
2023/01/06 01:21:58;;;;;;;0.65;0.60;;;12.90;99.90;;;;;;4973973;28;20291;-74
2023/01/06 01:24:24;;;;;;;1.48;0.60;;;13.00;99.90;;;;;;4972379;28;20242;-75
2023/01/06 01:26:55;;;;;;;1.10;0.60;;;13.00;99.90;;;;;;4968259;28;20207;-74
2023/01/06 01:29:20;;;;;;;1.00;0.60;;;13.00;99.90;;;;;;4958229;28;20257;-74
2023/01/06 01:31:46;;;;;;;3.00;0.95;;;13.00;99.90;;;;;;4975153;28;20246;-74
2023/01/06 01:34:14;;;;;;;0.95;0.70;;;13.00;99.90;;;;;;4979571;28;20404;-74
2023/01/06 01:36:44;;;;;;;1.00;0.65;;;13.00;99.90;;;;;;4969324;28;20203;-74
2023/01/06 01:39:13;;;;;;;0.70;0.60;;;13.00;99.90;;;;;;4970536;28;20181;-73
2023/01/06 01:41:42;;;;;;;1.00;0.50;;;13.00;99.90;;;;;;4971790;28;20191;-74
2023/01/06 01:44:45;;;;;;;1.20;0.70;;;12.90;99.90;;;;;;4976887;28;20214;-74
2023/01/06 01:47:30;;;;;;;1.52;0.80;;;13.00;99.90;;;;;;4991988;28;20202;-74
2023/01/06 01:50:09;;;;;;;1.05;0.63;;;12.90;99.90;;;;;;4968786;28;20176;-73
2023/01/06 01:52:35;;;;;;;0.90;0.60;;;13.00;99.90;;;;;;4974109;28;20291;-73
2023/01/06 01:55:02;;;;;;;0.63;0.52;;;13.00;99.90;;;;;;4977620;28;20360;-77
2023/01/06 01:57:34;;;;;;;1.10;0.60;;;13.00;99.90;;;;;;4977009;28;20185;-74
2023/01/06 02:00:04;;;;;;;1.60;0.55;;;12.90;99.90;;;;;;4979405;28;20172;-74
2023/01/06 02:02:30;;;;;;;1.73;0.63;;;13.00;99.90;;;;;;4977965;28;20198;-73
2023/01/06 02:04:59;;;;;;;1.33;0.70;;;13.00;99.90;;;;;;4986258;28;20198;-73
2023/01/06 02:07:26;;;;;;;3.05;0.60;;;13.00;99.90;;;;;;4978687;28;20203;-75
2023/01/06 02:10:08;;;;;;;1.00;0.50;;;12.90;99.90;;;;;;4975384;28;20269;-73
2023/01/06 02:12:39;;;;;;;1.02;0.57;;;13.00;99.90;;;;;;4982148;28;20203;-74
2023/01/06 02:15:23;;;;;;;0.88;0.50;;;13.00;99.90;;;;;;4970420;28;20207;-74
2023/01/06 02:17:58;;;;;;;1.92;0.68;;;13.00;99.90;;;;;;4981345;28;20183;-74
2023/01/06 02:21:00;;;;;;;1.40;0.60;;;13.00;99.90;;;;;;4976198;28;20241;-73
2023/01/06 02:23:35;;;;;;;1.45;0.70;;;13.00;99.90;;;;;;4976241;28;20174;-73
2023/01/06 02:26:37;;;;;;;1.35;0.55;;;13.00;99.90;;;;;;4990842;28;20225;-72
2023/01/06 02:29:15;;;;;;;0.77;0.55;;;13.00;99.90;;;;;;4975935;28;20180;-76
2023/01/06 02:31:59;;;;;;;1.95;0.70;;;13.00;99.90;;;;;;4981252;28;20179;-73
2023/01/06 02:34:46;;;;;;;2.83;0.77;;;13.00;99.90;;;;;;4957850;28;20179;-74
2023/01/06 02:37:27;;;;;;;0.90;0.65;;;13.00;99.90;;;;;;4974246;28;20214;-73
2023/01/06 02:40:28;;;;;;;1.17;0.73;;;12.90;99.90;;;;;;4987776;28;20213;-73
2023/01/06 02:43:24;;;;;;;1.20;0.57;;;12.90;99.90;;;;;;4978932;28;20179;-74
2023/01/06 02:46:07;;;;;;;2.40;0.55;;;12.90;99.90;;;;;;4976342;28;20274;-73
2023/01/06 02:48:50;;;;;;;1.35;0.60;;;12.90;99.90;;;;;;4973218;28;20221;-74
2023/01/06 02:51:22;;;;;;;1.30;0.60;;;12.90;99.90;;;;;;4972555;28;20241;-74
2023/01/06 02:53:56;;;;;;;2.97;0.70;;;12.90;99.90;;;;;;4979568;28;20271;-73
2023/01/06 02:56:30;;;;;;;2.28;0.98;;;12.90;99.90;;;;;;4983732;28;20193;-73
2023/01/06 02:59:06;;;;;;;2.10;0.77;;;12.90;99.90;;;;;;4982190;28;20184;-74
2023/01/06 03:01:32;;;;;;;0.60;0.50;;;12.80;99.90;;;;;;4974246;28;20221;-73
2023/01/06 03:04:08;;;;;;;1.60;0.57;;;12.80;99.90;;;;;;4981488;28;20235;-74
2023/01/06 03:06:35;;;;;;;1.08;0.40;;;12.80;99.90;;;;;;4974732;28;20194;-74
2023/01/06 03:09:04;;;;;;;2.15;0.70;;;12.80;99.90;;;;;;4984533;28;20334;-75
2023/01/06 03:11:34;;;;;;;0.82;0.40;;;12.80;99.90;;;;;;4978950;28;20175;-74
2023/01/06 03:14:35;;;;;;;2.15;0.77;;;12.80;99.90;;;;;;4979743;28;20361;-74
2023/01/06 03:17:01;;;;;;;1.77;1.00;;;12.80;99.90;;;;;;4965294;28;20229;-74
2023/01/06 03:19:27;;;;;;;1.00;0.55;;;12.80;99.90;;;;;;4986204;28;20196;-75
2023/01/06 03:21:56;;;;;;;1.40;0.55;;;12.80;99.90;;;;;;4982864;28;20211;-73
2023/01/06 03:24:24;;;;;;;1.30;0.60;;;12.80;99.90;;;;;;4999179;28;20190;-74
2023/01/06 03:26:51;;;;;;;2.35;0.60;;;12.80;99.90;;;;;;4979808;28;20197;-73
2023/01/06 03:29:19;;;;;;;1.48;0.60;;;12.80;99.90;;;;;;4983003;28;20214;-74
2023/01/06 03:31:48;;;;;;;0.82;0.50;;;12.80;99.90;;;;;;4982419;28;20171;-73
2023/01/06 03:34:41;;;;;;;1.15;0.47;;;12.70;99.90;;;;;;4970263;28;20306;-74
2023/01/06 03:37:16;;;;;;;0.73;0.40;;;12.80;99.90;;;;;;4986027;28;20242;-73
2023/01/06 03:39:55;;;;;;;1.38;0.50;;;12.80;99.90;;;;;;4986434;28;20182;-76
2023/01/06 03:46:04;;;;;;;1.15;0.50;;;12.70;99.90;;;;;;4984265;28;20198;-74
2023/01/06 03:48:54;;;;;;;1.10;0.60;;;12.70;99.90;;;;;;4970743;28;20188;-73
2023/01/06 03:51:53;;;;;;;1.48;0.60;;;12.80;99.90;;;;;;4979181;28;20179;-73
2023/01/06 03:54:25;;;;;;;1.33;0.60;;;12.80;99.90;;;;;;4991516;28;20179;-74
2023/01/06 03:57:04;;;;;;;1.00;0.40;;;12.80;99.90;;;;;;4982993;28;20239;-75
2023/01/06 03:59:36;;;;;;;0.68;0.50;;;12.80;99.90;;;;;;4973646;28;20176;-73
2023/01/06 04:02:04;;;;;;;1.83;1.30;;;12.80;99.90;;;;;;4973193;28;20182;-73
2023/01/06 04:04:32;;;;;;;2.03;0.98;;;12.80;99.90;;;;;;4986423;28;20189;-73
2023/01/06 04:06:58;;;;;;;1.63;0.77;;;12.80;99.90;;;;;;4988763;28;20202;-73
2023/01/06 04:09:26;;;;;;;1.50;0.60;;;12.80;99.90;;;;;;4985486;28;20241;-73
2023/01/06 04:14:38;;;;;;;1.27;0.47;;;12.80;99.90;;;;;;5007015;28;20190;-73
2023/01/06 04:17:04;;;;;;;0.75;0.47;;;12.80;99.90;;;;;;4975573;28;20203;-74
2023/01/06 04:19:29;;;;;;;0.50;0.40;;;12.90;99.90;;;;;;4977411;28;20178;-73
2023/01/06 04:21:55;;;;;;;1.20;0.40;;;12.80;99.90;;;;;;4983891;28;20174;-73
2023/01/06 04:24:20;;;;;;;0.65;0.40;;;12.80;99.90;;;;;;4978559;28;20206;-73
2023/01/06 04:26:48;;;;;;;1.00;0.40;;;12.90;99.90;;;;;;4982221;28;20222;-73
2023/01/06 04:29:16;;;;;;;1.33;0.50;;;12.90;99.90;;;;;;4978854;28;20179;-73
2023/01/06 04:31:42;;;;;;;0.80;0.63;;;12.90;99.90;;;;;;4979612;28;20254;-73
2023/01/06 04:34:08;;;;;;;1.65;0.52;;;12.80;99.90;;;;;;4980031;28;20455;-73
2023/01/06 04:36:33;;;;;;;0.93;0.40;;;12.90;99.90;;;;;;4983893;28;20212;-73
2023/01/06 04:39:03;;;;;;;0.60;0.40;;;12.80;99.90;;;;;;4990589;28;20191;-73
2023/01/06 04:41:31;;;;;;;0.90;0.52;;;12.80;99.90;;;;;;4981983;28;20230;-73
2023/01/06 04:43:57;;;;;;;0.40;0.25;;;12.80;99.90;;;;;;4982993;28;20355;-73
2023/01/06 04:46:23;;;;;;;0.85;0.50;;;12.80;99.90;;;;;;4982711;28;20242;-74
2023/01/06 04:48:48;;;;;;;1.70;0.50;;;12.80;99.90;;;;;;4975827;28;20179;-73
2023/01/06 04:51:16;;;;;;;1.52;0.82;;;12.80;99.90;;;;;;4972517;28;20206;-73
2023/01/06 04:53:42;;;;;;;0.80;0.50;;;12.90;99.90;;;;;;4977380;28;20197;-73
2023/01/06 04:56:14;;;;;;;0.90;0.50;;;12.80;99.90;;;;;;4978845;28;20285;-73
2023/01/06 04:58:42;;;;;;;0.80;0.50;;;12.90;99.90;;;;;;4981547;28;20179;-73
2023/01/06 05:01:10;;;;;;;1.77;0.80;;;12.90;99.90;;;;;;4961745;28;20203;-73
2023/01/06 05:03:39;;;;;;;1.15;0.55;;;12.90;99.90;;;;;;4982488;28;20198;-73
2023/01/06 05:06:08;;;;;;;1.40;0.52;;;12.90;99.90;;;;;;4984621;28;20207;-73
2023/01/06 05:08:35;;;;;;;0.70;0.50;;;12.90;99.90;;;;;;4975053;28;20303;-73
2023/01/06 05:11:03;;;;;;;0.82;0.50;;;12.90;99.90;;;;;;4983816;28;20335;-73
2023/01/06 05:13:35;;;;;;;0.63;0.50;;;13.00;99.90;;;;;;4984877;28;20238;-73
2023/01/06 05:16:06;;;;;;;1.20;0.40;;;13.00;99.90;;;;;;4970992;28;20203;-73
2023/01/06 05:18:34;;;;;;;0.32;0.30;;;13.00;99.90;;;;;;4974043;28;20179;-73
2023/01/06 05:21:01;;;;;;;0.30;0.30;;;13.00;99.90;;;;;;4971768;28;20263;-73
2023/01/06 05:23:26;;;;;;;0.80;0.50;;;13.00;99.90;;;;;;4975507;28;20202;-73
2023/01/06 05:25:52;;;;;;;0.80;0.50;;;12.90;99.90;;;;;;4971091;28;20214;-73
2023/01/06 05:28:19;;;;;;;0.98;0.50;;;12.90;99.90;;;;;;4970598;28;20202;-73
2023/01/06 05:30:45;;;;;;;0.57;0.40;;;13.10;99.90;;;;;;4980109;28;20206;-74
2023/01/06 05:33:10;;;;;;;2.28;0.50;;;12.90;99.90;;;;;;4979373;28;20440;-73
2023/01/06 05:35:36;;;;;;;2.15;0.43;;;13.00;99.90;;;;;;4978948;28;20213;-73
2023/01/06 05:38:02;;;;;;;0.90;0.35;;;12.90;99.90;;;;;;4978622;28;20425;-73
2023/01/06 05:40:32;;;;;;;1.33;0.60;;;12.90;99.90;;;;;;4986564;28;20200;-73
2023/01/06 05:43:00;;;;;;;0.80;0.60;;;13.00;99.90;;;;;;4975894;28;20164;-73
2023/01/06 05:45:26;;;;;;;0.65;0.50;;;13.00;99.90;;;;;;4967872;28;20183;-73
2023/01/06 05:47:51;;;;;;;0.80;0.40;;;13.00;99.90;;;;;;4968654;28;20333;-73
2023/01/06 05:50:19;;;;;;;0.98;0.40;;;13.00;99.90;;;;;;4981057;28;20185;-73
2023/01/06 05:52:45;;;;;;;0.80;0.50;;;13.00;99.90;;;;;;4990415;28;20178;-74
2023/01/06 05:55:10;;;;;;;1.58;0.50;;;12.90;99.90;;;;;;4979510;28;20201;-73
2023/01/06 05:57:37;;;;;;;1.58;0.40;;;12.90;99.90;;;;;;4961609;28;20243;-73
2023/01/06 06:00:07;;;;;;;3.50;0.40;;;12.90;99.90;;;;;;4975902;28;20207;-73
2023/01/06 06:02:33;;;;;;;2.05;0.47;;;12.90;99.90;;;;;;4986534;28;20259;-74
2023/01/06 06:04:59;;;;;;;0.63;0.40;;;12.90;99.90;;;;;;4974798;28;20176;-74
2023/01/06 06:07:27;;;;;;;1.20;0.40;;;13.00;99.90;;;;;;4969938;28;20183;-74
2023/01/06 06:09:52;;;;;;;1.10;0.40;;;12.90;99.90;;;;;;4977535;28;20203;-74
2023/01/06 06:12:18;;;;;;;0.75;0.50;;;12.90;99.90;;;;;;4978254;28;20182;-75
2023/01/06 06:14:43;;;;;;;0.50;0.30;;;12.90;99.90;;;;;;4983135;28;20176;-74
2023/01/06 06:17:09;;;;;;;0.70;0.50;;;12.90;99.90;;;;;;4976217;28;20293;-74
2023/01/06 06:19:35;;;;;;;1.05;0.60;;;12.90;99.90;;;;;;4975978;28;20263;-71
2023/01/06 06:22:02;;;;;;;0.65;0.32;;;12.90;99.90;;;;;;4976942;28;20171;-73
2023/01/06 06:24:28;;;;;;;0.60;0.50;;;12.90;99.90;;;;;;4986310;28;20179;-70
2023/01/06 06:26:54;;;;;;;1.15;0.50;;;12.90;99.90;;;;;;4976798;28;20194;-73
2023/01/06 06:29:19;;;;;;;2.38;0.60;;;12.90;99.90;;;;;;4971911;28;20234;-72
2023/01/06 06:31:47;;;;;;;1.13;0.50;;;12.90;99.90;;;;;;4979519;28;20184;-72
2023/01/06 06:34:13;;;;;;;0.98;0.50;;;12.90;99.90;;;;;;4983918;28;20170;-72
2023/01/06 06:36:38;;;;;;;0.77;0.40;;;12.90;99.90;;;;;;4977925;28;20229;-73
2023/01/06 06:39:04;;;;;;;2.10;0.75;;;12.90;99.90;;;;;;4976836;28;20187;-73
2023/01/06 06:41:29;;;;;;;1.33;0.60;;;12.90;99.90;;;;;;4972886;28;20179;-73
2023/01/06 06:43:55;;;;;;;1.10;0.52;;;13.00;99.90;;;;;;4982284;28;20210;-72
2023/01/06 06:46:21;;;;;;;1.48;0.60;;;12.90;99.90;;;;;;4977959;28;20344;-72
2023/01/06 06:48:51;;;;;;;0.45;0.40;;;13.00;99.90;;;;;;4975253;28;20179;-73
2023/01/06 06:51:18;;;;;;;1.25;0.60;;;13.00;99.90;;;;;;4963736;28;20183;-72
2023/01/06 06:53:47;;;;;;;1.52;0.57;;;13.00;99.90;;;;;;4980084;28;20196;-73
2023/01/06 06:56:17;;;;;;;0.60;0.50;;;13.00;99.90;;;;;;4978686;28;20267;-72
2023/01/06 06:58:43;;;;;;;1.38;0.75;;;13.00;99.90;;;;;;4984086;28;20175;-73
2023/01/06 07:01:13;;;;;;;0.60;0.50;;;13.00;99.90;;;;;;4981992;28;20211;-72
2023/01/06 07:03:41;;;;;;;1.10;0.60;;;13.00;99.90;;;;;;4981334;28;20418;-73
2023/01/06 07:06:10;;;;;;;0.60;0.40;;;13.00;99.90;;;;;;4979429;28;20187;-72
2023/01/06 07:08:38;;;;;;;0.65;0.47;;;13.00;99.90;;;;;;4979469;28;20207;-73
2023/01/06 07:11:06;;;;;;;0.47;0.43;;;13.00;99.90;;;;;;4980330;28;20186;-73
2023/01/06 07:13:31;;;;;;;0.80;0.60;;;13.10;99.90;;;;;;4977003;28;20179;-72
2023/01/06 07:15:57;;;;;;;1.48;0.70;;;13.10;99.90;;;;;;4979674;28;20195;-72
2023/01/06 07:18:23;;;;;;;1.73;0.85;;;13.10;99.90;;;;;;4979212;28;20172;-71
2023/01/06 07:20:52;;;;;;;0.77;0.50;;;13.10;99.90;;;;;;4980559;28;20203;-72
2023/01/06 07:23:19;;;;;;;1.30;0.68;;;13.00;99.90;;;;;;4974923;28;20201;-73
2023/01/06 07:25:51;;;;;;;0.77;0.60;;;13.10;99.90;;;;;;4976113;28;20364;-72
2023/01/06 07:28:22;;;;;;;3.30;0.50;;;13.10;99.90;;;;;;4988479;28;20234;-72
2023/01/06 07:30:51;;;;;;;1.27;0.55;;;13.10;99.90;;;;;;4984041;28;20194;-74
2023/01/06 07:33:19;;;;;;;1.90;0.50;;;13.00;99.90;;;;;;4986377;28;20211;-73
2023/01/06 07:35:45;;;;;;;1.02;0.45;;;13.10;99.90;;;;;;4980481;28;20207;-72
2023/01/06 07:38:11;;;;;;;1.00;0.40;;;13.00;99.90;;;;;;4983537;28;20444;-72
2023/01/06 07:40:37;;;;;;;0.60;0.40;;;13.00;99.90;;;;;;4997393;28;20248;-72
2023/01/06 07:43:07;;;;;;;0.88;0.43;;;13.00;99.90;;;;;;4987280;28;20183;-72
2023/01/06 07:45:33;;;;;;;0.70;0.52;;;13.00;99.90;;;;;;4978892;28;20199;-72
2023/01/06 07:47:59;;;;;;;1.42;0.55;;;13.00;99.90;;;;;;4975833;28;20191;-72
2023/01/06 07:50:28;;;;;;;1.05;0.80;;;13.00;99.90;;;;;;4979008;28;20191;-72
2023/01/06 07:52:56;;;;;;;0.82;0.60;;;13.00;99.90;;;;;;4984160;28;20199;-72
2023/01/06 07:55:22;;;;;;;0.52;0.50;;;12.90;99.90;;;;;;4967847;28;20278;-72
2023/01/06 07:57:50;;;;;;;1.13;0.50;;;12.90;99.90;;;;;;4979281;28;20306;-72
2023/01/06 08:00:18;;;;;;;0.63;0.60;;;12.90;99.90;;;;;;4971162;28;20280;-72
2023/01/06 08:02:44;;;;;;;1.15;0.60;;;12.90;99.90;;;;;;4980206;28;20247;-72
2023/01/06 08:05:09;;;;;;;0.50;0.40;;;12.90;99.90;;;;;;4979499;28;20254;-71
2023/01/06 08:07:35;;;;;;;0.77;0.45;;;12.90;99.90;;;;;;4978150;28;20180;-71
2023/01/06 08:10:01;;;;;;;0.57;0.40;;;12.90;99.90;;;;;;4972977;28;20210;-72
2023/01/06 08:12:29;;;;;;;1.05;0.40;;;12.90;99.90;;;;;;4976604;28;20203;-71
2023/01/06 08:14:56;;;;;;;0.50;0.30;;;12.90;99.90;;;;;;4975634;28;20238;-71
2023/01/06 08:17:22;;;;;;;1.75;0.57;;;12.90;99.90;;;;;;4979488;28;20207;-73
2023/01/06 08:19:50;;;;;;;0.77;0.40;;;12.90;99.90;;;;;;4978720;28;20194;-74
2023/01/06 08:22:15;;;;;;;0.77;0.50;;;12.90;99.90;;;;;;4980165;28;20283;-74
2023/01/06 08:24:41;;;;;;;0.88;0.47;;;12.90;99.90;;;;;;4976568;28;20253;-74
2023/01/06 08:27:09;;;;;;;1.35;0.70;;;12.90;99.90;;;;;;4978373;28;20183;-74
2023/01/06 08:29:35;;;;;;;0.90;0.55;;;12.90;99.90;;;;;;4980607;28;20277;-73
2023/01/06 08:32:03;;;;;;;1.00;0.52;;;13.00;99.90;;;;;;4986225;28;20241;-73
2023/01/06 08:34:28;;;;;;;0.55;0.45;;;13.00;99.90;;;;;;4975883;28;20215;-75
2023/01/06 08:36:56;;;;;;;0.60;0.40;;;13.00;99.90;;;;;;4978579;28;20241;-74
2023/01/06 08:39:24;;;;;;;1.15;0.57;;;13.10;99.90;;;;;;4971891;28;20199;-73
2023/01/06 08:41:50;;;;;;;0.90;0.50;;;13.10;99.90;;;;;;4972889;28;20195;-73
2023/01/06 08:44:19;;;;;;;0.68;0.63;;;13.10;99.90;;;;;;4983596;28;20310;-72
2023/01/06 08:46:47;;;;;;;1.02;0.50;;;13.10;99.90;;;;;;4985903;28;20175;-73
2023/01/06 08:49:13;;;;;;;0.40;0.35;;;13.10;99.90;;;;;;4975435;28;20291;-72
2023/01/06 08:51:41;;;;;;;0.60;0.50;;;13.10;99.90;;;;;;4974676;28;20214;-73
2023/01/06 08:54:06;;;;;;;1.08;0.30;;;13.10;99.90;;;;;;4978569;28;20268;-72
2023/01/06 08:56:32;;;;;;;0.80;0.40;;;13.20;99.90;;;;;;4974698;28;20319;-73
2023/01/06 08:59:02;;;;;;;0.88;0.40;;;13.10;99.90;;;;;;4978090;28;20179;-73
2023/01/06 09:01:30;;;;;;;0.90;0.35;;;13.20;99.90;;;;;;4978304;28;20222;-72
2023/01/06 09:03:58;;;;;;;0.52;0.32;;;13.20;99.90;;;;;;4971697;28;20241;-73
2023/01/06 09:06:25;;;;;;;0.40;0.30;;;13.20;99.90;;;;;;4981311;28;20187;-73
2023/01/06 09:08:51;;;;;;;0.40;0.30;;;13.20;99.90;;;;;;4975369;28;20226;-73
2023/01/06 09:11:16;;;;;;;0.32;0.32;;;13.20;99.90;;;;;;4980785;28;20203;-72
2023/01/06 09:13:43;;;;;;;0.35;0.30;;;13.20;99.90;;;;;;4977302;28;20183;-73
2023/01/06 09:16:14;;;;;;;0.30;0.30;;;13.20;99.90;;;;;;4980454;28;20233;-74
2023/01/06 09:18:47;;;;;;;0.60;0.32;;;13.30;99.90;;;;;;4977791;28;20258;-73
2023/01/06 09:21:14;;;;;;;0.30;0.28;;;13.30;99.90;;;;;;4977080;28;20203;-73
2023/01/06 09:23:40;;;;;;;0.63;0.35;;;13.30;99.90;;;;;;4980476;28;20247;-74
2023/01/06 09:26:06;;;;;;;1.15;0.40;;;13.30;99.90;;;;;;4971391;28;20191;-73
2023/01/06 09:28:34;;;;;;;0.30;0.30;;;13.30;99.90;;;;;;4981080;28;20236;-73
2023/01/06 09:31:00;;;;;;;1.02;0.50;;;13.30;99.90;;;;;;4975629;28;20230;-75
2023/01/06 09:33:28;;;;;;;1.38;0.43;;;13.40;99.90;;;;;;4997312;28;20218;-73
2023/01/06 09:35:54;;;;;;;0.50;0.32;;;13.30;99.90;;;;;;4985435;28;20195;-72
2023/01/06 09:38:19;;;;;;;1.25;0.40;;;13.40;99.90;;;;;;4975146;28;20175;-73
2023/01/06 09:41:21;;;;;;;0.77;0.40;;;13.40;99.90;;;;;;4982552;28;20197;-73
2023/01/06 09:43:51;;;;;;;0.50;0.30;;;13.50;99.90;;;;;;4960972;28;20214;-72
2023/01/06 09:46:27;;;;;;;0.82;0.40;;;13.50;99.90;;;;;;4981457;28;20289;-73
2023/01/06 09:49:10;;;;;;;0.57;0.30;;;13.50;99.90;;;;;;4982022;28;20179;-72
2023/01/06 09:51:36;;;;;;;0.38;0.30;;;13.50;99.90;;;;;;4975332;28;20206;-72
2023/01/06 09:54:19;;;;;;;0.52;0.32;;;13.60;99.90;;;;;;4968703;28;20207;-74
2023/01/06 09:56:52;;;;;;;0.30;0.22;;;13.50;99.90;;;;;;4977260;28;20199;-70
2023/01/06 09:59:23;;;;;;;0.32;0.30;;;13.50;99.90;;;;;;4977129;28;20218;-72
2023/01/06 10:01:50;;;;;;;1.85;0.28;;;13.60;99.90;;;;;;4974924;28;20191;-76
2023/01/06 10:04:24;;;;;;;0.50;0.38;;;13.60;99.90;;;;;;4979472;28;20372;-71
2023/01/06 10:06:56;;;;;;;0.30;0.30;;;13.70;99.90;;;;;;4982612;28;20201;-73
2023/01/06 10:09:24;;;;;;;1.08;0.43;;;13.70;99.90;;;;;;4984615;28;20180;-74
2023/01/06 10:12:23;;;;;;;0.85;0.30;;;13.70;99.90;;;;;;4979819;28;20209;-74
2023/01/06 10:18:26;;;;;;;0.40;0.30;;;13.90;99.90;;;;;;4983435;28;20221;-76
2023/01/06 10:20:54;;;;;;;0.40;0.35;;;13.90;99.90;;;;;;4990577;28;20187;-70
2023/01/06 10:23:45;;;;;;;0.38;0.22;;;14.00;99.90;;;;;;4979514;28;20250;-72
2023/01/06 10:26:14;;;;;;;0.40;0.30;;;14.00;99.90;;;;;;4999552;28;20179;-76
2023/01/06 10:28:53;;;;;;;0.30;0.30;;;14.10;99.90;;;;;;4977468;28;20180;-77
2023/01/06 10:31:25;;;;;;;0.57;0.30;;;14.10;99.90;;;;;;4984429;28;20210;-74
2023/01/06 10:33:58;;;;;;;0.30;0.30;;;14.10;99.90;;;;;;4979183;28;20182;-73
2023/01/06 10:36:40;;;;;;;0.40;0.22;;;14.10;99.90;;;;;;4980185;28;20225;-74
2023/01/06 10:39:14;;;;;;;0.90;0.30;;;14.10;99.90;;;;;;4979311;28;20233;-75
2023/01/06 10:42:54;;;;;;;0.40;0.20;;;14.20;99.90;;;;;;4972280;28;20175;-75
2023/01/06 10:44:37;;;;;;;0.30;0.30;;;14.20;99.90;;;;;;5008235;28;20179;-74
2023/01/06 10:47:05;;;;;;;2.25;0.40;;;14.20;99.90;;;;;;4980516;28;20194;-75
2023/01/06 10:49:31;;;;;;;0.68;0.35;;;14.20;99.90;;;;;;4978521;28;20184;-75
2023/01/06 10:52:02;;;;;;;1.17;0.77;;;14.20;99.90;;;;;;4979328;28;20183;-74
2023/01/06 10:54:32;;;;;;;0.80;0.50;;;14.20;99.90;;;;;;4978903;28;20195;-75
2023/01/06 10:57:02;;;;;;;0.57;0.40;;;14.30;99.90;;;;;;4980268;28;20203;-76
2023/01/06 10:59:29;;;;;;;0.68;0.40;;;14.20;99.90;;;;;;4979894;28;20218;-74
2023/01/06 11:01:58;;;;;;;0.50;0.43;;;14.30;99.90;;;;;;4978453;28;20230;-76
2023/01/06 11:04:26;;;;;;;0.30;0.30;;;14.20;99.90;;;;;;4979371;28;20226;-74
2023/01/06 11:06:59;;;;;;;0.57;0.32;;;14.20;99.90;;;;;;4978630;28;20187;-74
2023/01/06 11:09:27;;;;;;;0.50;0.40;;;14.10;99.90;;;;;;4985564;28;20424;-75
2023/01/06 11:11:55;;;;;;;0.65;0.60;;;14.00;99.90;;;;;;4992749;28;20285;-74
2023/01/06 11:14:25;;;;;;;0.38;0.35;;;13.80;99.90;;;;;;4981283;28;20188;-74
2023/01/06 11:16:58;;;;;;;0.50;0.40;;;13.80;99.90;;;;;;4987416;28;20210;-75
2023/01/06 11:19:33;;;;;;;0.32;0.30;;;13.70;99.90;;;;;;4975619;28;20218;-74
2023/01/06 11:22:01;;;;;;;3.70;0.40;;;13.70;99.90;;;;;;4986910;28;20189;-74
2023/01/06 11:24:29;;;;;;;0.30;0.30;;;13.70;99.90;;;;;;4985632;28;20262;-74
2023/01/06 11:27:01;;;;;;;0.30;0.30;;;13.60;99.90;;;;;;4982706;28;20227;-74
2023/01/06 11:29:38;;;;;;;0.17;0.17;;;13.70;99.90;;;;;;4978205;28;20207;-73
2023/01/06 11:32:26;;;;;;;0.68;0.40;;;13.70;99.90;;;;;;4991796;28;20204;-75
2023/01/06 11:34:56;;;;;;;0.75;0.28;;;13.70;99.90;;;;;;4985618;28;20271;-75
2023/01/06 11:37:40;;;;;;;0.43;0.38;;;13.70;99.90;;;;;;4979267;28;20297;-75
2023/01/06 11:40:31;;;;;;;0.43;0.20;;;13.80;99.90;;;;;;4968993;28;20190;-75
2023/01/06 11:43:13;;;;;;;0.30;0.20;;;13.80;99.90;;;;;;4977049;28;20253;-74
2023/01/06 11:46:00;;;;;;;1.63;0.68;;;13.80;99.90;;;;;;4974958;28;20299;-74
2023/01/06 11:48:31;;;;;;;0.50;0.32;;;13.90;99.90;;;;;;4989663;28;20187;-74
2023/01/06 11:51:02;;;;;;;0.60;0.50;;;13.90;99.90;;;;;;4977417;28;20234;-73
2023/01/06 11:53:33;;;;;;;1.20;0.50;;;13.90;99.90;;;;;;4973338;28;20445;-75
2023/01/06 11:56:01;;;;;;;1.20;0.50;;;13.90;99.90;;;;;;4972061;28;20279;-74
2023/01/06 11:58:34;;;;;;;1.10;0.50;;;14.00;99.90;;;;;;4977825;28;20188;-73
2023/01/06 12:01:06;;;;;;;0.38;0.30;;;14.10;99.90;;;;;;4979830;28;20181;-73
2023/01/06 12:03:41;;;;;;;1.13;0.30;;;14.10;99.90;;;;;;4975965;28;20270;-73
2023/01/06 12:06:35;;;;;;;0.40;0.40;;;14.10;99.90;;;;;;4991658;28;20178;-74
2023/01/06 12:09:24;;;;;;;0.30;0.30;;;14.10;99.90;;;;;;4996829;28;20269;-73
2023/01/06 12:11:57;;;;;;;1.33;0.30;;;14.10;99.90;;;;;;4976913;28;20183;-74
2023/01/06 12:14:29;;;;;;;0.20;0.20;;;14.10;99.90;;;;;;4975857;28;20193;-71
2023/01/06 12:17:32;;;;;;;0.40;0.30;;;14.10;99.90;;;;;;4977351;28;20191;-73
2023/01/06 12:20:06;;;;;;;0.57;0.32;;;14.10;99.90;;;;;;4993337;28;20455;-73
2023/01/06 12:22:40;;;;;;;0.50;0.47;;;14.10;99.90;;;;;;4989934;28;20201;-74
2023/01/06 12:25:20;;;;;;;0.35;0.30;;;14.00;99.90;;;;;;4976440;28;20449;-75
2023/01/06 12:27:54;;;;;;;0.60;0.32;;;14.10;99.90;;;;;;4973398;28;20218;-73
2023/01/06 12:30:38;;;;;;;0.20;0.20;;;14.10;99.90;;;;;;4976687;28;20194;-74
2023/01/06 12:33:27;;;;;;;0.50;0.40;;;14.10;99.90;;;;;;4982551;28;20192;-74
2023/01/06 12:35:58;;;;;;;0.17;0.17;;;14.10;99.90;;;;;;4984624;28;20195;-74
2023/01/06 12:38:55;;;;;;;0.30;0.30;;;14.10;99.90;;;;;;4986497;28;20254;-73
2023/01/06 12:41:42;;;;;;;0.52;0.38;;;14.20;99.90;;;;;;4965556;28;20195;-73
2023/01/06 12:44:49;;;;;;;0.70;0.40;;;14.20;99.90;;;;;;4978964;28;20278;-73
2023/01/06 12:47:36;;;;;;;1.00;0.65;;;14.30;99.90;;;;;;4875037;29;20197;-74
2023/01/06 12:50:26;;;;;;;0.43;0.32;;;14.30;99.90;;;;;;4967699;28;20226;-74
2023/01/06 12:52:59;;;;;;;0.40;0.32;;;14.30;99.90;;;;;;4976836;28;20270;-74
2023/01/06 12:55:59;;;;;;;0.60;0.32;;;14.40;99.90;;;;;;4985722;28;20310;-73
2023/01/06 12:58:52;;;;;;;0.82;0.35;;;14.40;99.90;;;;;;4996132;28;20170;-73
2023/01/06 13:01:49;;;;;;;0.38;0.28;;;14.40;99.90;;;;;;4971570;28;20234;-73
2023/01/06 13:04:25;;;;;;;0.30;0.30;;;14.50;99.90;;;;;;4979234;28;20191;-73
2023/01/06 13:07:08;;;;;;;0.30;0.30;;;14.50;99.90;;;;;;4986739;28;20191;-72
2023/01/06 13:09:55;;;;;;;1.05;0.40;;;14.60;99.90;;;;;;4992638;28;20265;-72
2023/01/06 13:12:53;;;;;;;1.02;0.45;;;14.50;99.90;;;;;;4981560;28;20246;-72
2023/01/06 13:15:24;;;;;;;0.60;0.43;;;14.60;99.90;;;;;;4981008;28;20271;-72
2023/01/06 13:17:53;;;;;;;0.50;0.28;;;14.50;99.90;;;;;;4966353;28;20266;-72
2023/01/06 13:20:37;;;;;;;0.52;0.40;;;14.50;99.90;;;;;;4977450;28;20202;-74